createdAt,value
2023-01-15T00:01:44.786Z,18.90
2023-01-15T00:04:32.843Z,19.00
2023-01-15T00:07:22.161Z,18.90
2023-01-15T00:10:11.636Z,18.90
2023-01-15T00:12:59.646Z,18.90
2023-01-15T00:15:47.700Z,18.90
2023-01-15T00:18:35.765Z,18.80
2023-01-15T00:21:24.911Z,18.90
2023-01-15T00:24:31.986Z,18.80
2023-01-15T00:27:37.743Z,18.70
2023-01-15T00:30:25.860Z,18.70
2023-01-15T00:33:13.887Z,18.70
2023-01-15T00:36:01.870Z,18.70
2023-01-15T00:38:49.900Z,18.80
2023-01-15T00:41:39.233Z,18.80
2023-01-15T00:44:27.256Z,18.80
2023-01-15T00:47:15.337Z,18.90
2023-01-15T00:50:03.575Z,18.90
2023-01-15T00:52:51.575Z,18.90
2023-01-15T00:55:39.707Z,19.00
2023-01-15T00:58:29.026Z,19.00
2023-01-15T01:01:17.205Z,19.00
2023-01-15T01:04:05.421Z,19.10
2023-01-15T01:06:53.471Z,19.10
2023-01-15T01:09:41.522Z,19.10
2023-01-15T01:12:29.577Z,19.10
2023-01-15T01:15:19.098Z,19.20
2023-01-15T01:18:07.772Z,19.10
2023-01-15T01:20:56.238Z,19.10
2023-01-15T01:23:44.319Z,19.10
2023-01-15T01:26:32.445Z,19.10
2023-01-15T01:29:22.661Z,19.10
2023-01-15T01:32:13.411Z,19.00
2023-01-15T01:35:01.414Z,19.00
2023-01-15T01:37:51.425Z,19.10
2023-01-15T01:40:41.420Z,19.00
2023-01-15T01:43:31.089Z,18.90
2023-01-15T01:46:19.086Z,18.80
2023-01-15T01:49:11.975Z,18.80
2023-01-15T01:52:04.127Z,18.80
2023-01-15T01:54:53.329Z,18.80
2023-01-15T01:57:42.125Z,18.80
2023-01-15T02:00:31.467Z,18.90
2023-01-15T02:03:24.231Z,18.90
2023-01-15T02:06:15.291Z,18.90
2023-01-15T02:09:03.359Z,19.00
2023-01-15T02:11:55.765Z,19.00
2023-01-15T02:14:51.520Z,19.10
2023-01-15T02:17:47.427Z,19.10
2023-01-15T02:20:40.710Z,19.10
2023-01-15T02:23:54.475Z,19.00
2023-01-15T02:26:59.268Z,19.10
2023-01-15T02:29:55.429Z,19.10
2023-01-15T02:32:47.020Z,19.10
2023-01-15T02:35:40.960Z,19.10
2023-01-15T02:38:34.087Z,19.10
2023-01-15T02:41:27.039Z,19.10
2023-01-15T02:44:18.829Z,19.10
2023-01-15T02:47:08.272Z,19.10
2023-01-15T02:50:00.610Z,19.10
2023-01-15T02:52:52.871Z,19.00
2023-01-15T02:55:45.586Z,19.00
2023-01-15T02:58:38.303Z,19.00
2023-01-15T03:01:33.324Z,19.00
2023-01-15T03:04:29.959Z,18.90
2023-01-15T03:07:22.808Z,18.80
2023-01-15T03:10:12.012Z,18.80
2023-01-15T03:13:07.222Z,18.80
2023-01-15T03:16:19.534Z,19.50
2023-01-15T03:19:22.779Z,18.80
2023-01-15T03:22:14.257Z,18.80
2023-01-15T03:25:05.270Z,18.80
2023-01-15T03:27:55.709Z,18.90
2023-01-15T03:30:43.840Z,18.90
2023-01-15T03:33:32.073Z,18.90
2023-01-15T03:36:21.460Z,19.00
2023-01-15T03:39:09.583Z,18.90
2023-01-15T03:42:06.330Z,19.00
2023-01-15T03:45:03.175Z,19.00
2023-01-15T03:48:01.644Z,19.00
2023-01-15T03:50:52.084Z,19.00
2023-01-15T03:53:45.948Z,19.00
2023-01-15T03:56:41.066Z,19.00
2023-01-15T03:59:34.404Z,19.00
2023-01-15T04:02:24.595Z,19.00
2023-01-15T04:05:13.004Z,18.90
2023-01-15T04:08:02.163Z,18.90
2023-01-15T04:10:56.229Z,18.80
2023-01-15T04:13:44.291Z,18.80
2023-01-15T04:16:34.432Z,18.70
2023-01-15T04:19:22.620Z,18.70
2023-01-15T04:22:11.761Z,18.80
2023-01-15T04:24:59.850Z,18.80
2023-01-15T04:27:50.493Z,18.90
2023-01-15T04:30:38.548Z,18.90
2023-01-15T04:33:26.762Z,19.00
2023-01-15T04:36:15.410Z,18.80
2023-01-15T04:39:03.667Z,19.00
2023-01-15T04:42:09.249Z,19.00
2023-01-15T04:44:58.655Z,19.00
2023-01-15T04:47:46.713Z,19.00
2023-01-15T04:50:35.044Z,19.00
2023-01-15T04:53:23.107Z,19.00
2023-01-15T04:56:11.263Z,19.00
2023-01-15T04:59:02.428Z,19.00
2023-01-15T05:02:03.193Z,19.00
2023-01-15T05:04:52.274Z,19.00
2023-01-15T05:07:40.397Z,18.90
2023-01-15T05:10:28.445Z,18.90
2023-01-15T05:13:16.497Z,18.80
2023-01-15T05:16:16.208Z,18.80
2023-01-15T05:19:08.192Z,18.80
2023-01-15T05:21:56.299Z,18.70
2023-01-15T05:24:44.375Z,18.70
2023-01-15T05:27:32.500Z,18.60
2023-01-15T05:30:20.681Z,18.60
2023-01-15T05:33:08.733Z,18.60
2023-01-15T05:36:02.492Z,18.60
2023-01-15T05:38:50.701Z,18.60
2023-01-15T05:41:51.068Z,18.60
2023-01-15T05:44:39.361Z,18.70
2023-01-15T05:47:27.417Z,18.70
2023-01-15T05:50:15.468Z,18.80
2023-01-15T05:53:04.951Z,18.60
2023-01-15T05:55:52.970Z,18.80
2023-01-15T05:58:41.021Z,18.80
2023-01-15T06:01:29.128Z,18.80
2023-01-15T06:04:21.048Z,18.80
2023-01-15T06:07:09.197Z,18.80
2023-01-15T06:09:58.577Z,18.90
2023-01-15T06:12:47.252Z,19.00
2023-01-15T06:15:35.307Z,18.90
2023-01-15T06:18:24.743Z,18.90
2023-01-15T06:21:14.787Z,18.90
2023-01-15T06:24:03.090Z,18.90
2023-01-15T06:26:52.616Z,18.90
2023-01-15T06:29:40.640Z,18.90
2023-01-15T06:32:28.739Z,18.80
2023-01-15T06:35:16.848Z,18.80
2023-01-15T06:38:04.886Z,18.70
2023-01-15T06:40:52.912Z,18.70
2023-01-15T06:44:00.048Z,18.60
2023-01-15T06:47:07.990Z,18.60
2023-01-15T06:49:58.414Z,18.50
2023-01-15T06:52:46.447Z,18.50
2023-01-15T06:55:34.501Z,18.50
2023-01-15T06:58:23.170Z,18.50
2023-01-15T07:01:14.417Z,18.50
2023-01-15T07:04:02.551Z,18.50
2023-01-15T07:06:50.725Z,18.60
2023-01-15T07:09:38.778Z,18.60
2023-01-15T07:12:27.437Z,18.60
2023-01-15T07:15:15.582Z,18.60
2023-01-15T07:18:05.361Z,18.70
2023-01-15T07:20:56.252Z,18.70
2023-01-15T07:23:44.335Z,18.80
2023-01-15T07:26:32.424Z,18.70
2023-01-15T07:29:20.535Z,18.80
2023-01-15T07:32:08.781Z,18.80
2023-01-15T07:34:58.157Z,18.70
2023-01-15T07:37:46.205Z,18.70
2023-01-15T07:40:34.221Z,18.70
2023-01-15T07:43:40.048Z,18.70
2023-01-15T07:46:45.945Z,18.80
2023-01-15T07:49:49.336Z,18.60
2023-01-15T07:52:38.733Z,18.50
2023-01-15T07:55:26.896Z,18.50
2023-01-15T07:58:14.952Z,18.50
2023-01-15T08:01:03.025Z,18.50
2023-01-15T08:03:51.176Z,18.50
2023-01-15T08:06:39.478Z,18.60
2023-01-15T08:09:30.000Z,18.60
2023-01-15T08:12:35.840Z,18.70
2023-01-15T08:15:24.150Z,18.70
2023-01-15T08:18:12.213Z,18.80
2023-01-15T08:21:00.241Z,18.80
2023-01-15T08:23:50.492Z,18.90
2023-01-15T08:26:39.935Z,18.90
2023-01-15T08:29:28.876Z,18.90
2023-01-15T08:32:16.929Z,19.00
2023-01-15T08:35:05.539Z,18.90
2023-01-15T08:37:53.603Z,19.00
2023-01-15T08:40:55.640Z,19.00
2023-01-15T08:43:45.747Z,19.00
2023-01-15T08:46:33.824Z,19.20
2023-01-15T08:49:22.738Z,18.90
2023-01-15T08:52:11.054Z,18.90
2023-01-15T08:54:59.112Z,18.90
2023-01-15T08:57:47.166Z,18.90
2023-01-15T09:00:36.509Z,18.80
2023-01-15T09:03:24.592Z,18.80
2023-01-15T09:06:13.517Z,18.70
2023-01-15T09:09:01.673Z,18.70
2023-01-15T09:11:49.800Z,18.60
2023-01-15T09:14:59.603Z,18.50
2023-01-15T09:17:47.224Z,18.50
2023-01-15T09:20:35.268Z,18.60
2023-01-15T09:23:23.509Z,18.60
2023-01-15T09:26:28.736Z,18.70
2023-01-15T09:29:16.801Z,18.80
2023-01-15T09:32:04.887Z,18.80
2023-01-15T09:34:54.410Z,18.90
2023-01-15T09:37:42.466Z,18.90
2023-01-15T09:40:44.743Z,19.00
2023-01-15T09:43:51.189Z,19.00
2023-01-15T09:46:46.197Z,19.00
2023-01-15T09:49:50.064Z,19.10
2023-01-15T09:52:59.512Z,19.00
2023-01-15T09:55:49.300Z,19.10
2023-01-15T09:58:40.217Z,19.10
2023-01-15T10:01:30.484Z,19.10
2023-01-15T10:04:32.364Z,19.00
2023-01-15T10:07:28.364Z,19.10
2023-01-15T10:10:23.192Z,19.10
2023-01-15T10:13:19.121Z,19.10
2023-01-15T10:16:08.228Z,19.10
2023-01-15T10:18:58.167Z,19.10
2023-01-15T10:21:54.353Z,19.00
2023-01-15T10:24:47.741Z,19.00
2023-01-15T10:27:40.135Z,19.00
2023-01-15T10:30:38.062Z,18.90
2023-01-15T10:33:40.272Z,18.90
2023-01-15T10:36:34.355Z,18.80
2023-01-15T10:39:30.379Z,18.80
2023-01-15T10:42:31.325Z,18.70
2023-01-15T10:45:25.285Z,18.60
2023-01-15T10:48:19.230Z,18.70
2023-01-15T10:51:16.560Z,18.60
2023-01-15T10:54:09.404Z,18.70
2023-01-15T10:57:02.651Z,18.80
2023-01-15T10:59:57.383Z,18.70
2023-01-15T11:02:51.911Z,18.80
2023-01-15T11:05:39.982Z,18.80
2023-01-15T11:12:07.094Z,18.90
2023-01-15T11:15:12.790Z,19.00
2023-01-15T11:18:21.556Z,19.00
2023-01-15T11:21:14.210Z,19.10
2023-01-15T11:24:02.314Z,19.00
2023-01-15T11:26:54.701Z,19.10
2023-01-15T11:29:45.536Z,19.10
2023-01-15T11:32:35.338Z,19.10
2023-01-15T11:35:25.119Z,19.20
2023-01-15T11:38:15.716Z,19.20
2023-01-15T11:41:05.392Z,19.20
2023-01-15T11:44:16.057Z,19.10
2023-01-15T11:47:27.140Z,19.10
2023-01-15T11:50:36.459Z,19.00
2023-01-15T11:53:30.199Z,19.00
2023-01-15T11:56:20.515Z,18.80
2023-01-15T11:59:13.132Z,18.80
2023-01-15T12:02:04.290Z,18.80
2023-01-15T12:04:55.061Z,18.80
2023-01-15T12:07:43.591Z,18.70
2023-01-15T12:10:56.766Z,18.60
2023-01-15T12:13:51.038Z,18.60
2023-01-15T12:16:44.577Z,18.70
2023-01-15T12:19:43.732Z,18.80
2023-01-15T12:22:45.761Z,18.80
2023-01-15T12:25:43.711Z,18.80
2023-01-15T12:28:34.688Z,18.90
2023-01-15T12:31:27.459Z,18.90
2023-01-15T12:34:23.172Z,18.90
2023-01-15T12:37:20.661Z,19.00
2023-01-15T12:40:21.332Z,19.00
2023-01-15T12:43:34.643Z,19.00
2023-01-15T12:46:29.008Z,19.00
2023-01-15T12:49:32.663Z,19.00
2023-01-15T12:52:25.354Z,18.90
2023-01-15T12:55:17.079Z,18.90
2023-01-15T12:58:12.460Z,19.00
2023-01-15T13:01:08.505Z,19.00
2023-01-15T13:04:08.640Z,19.00
2023-01-15T13:07:01.487Z,19.00
2023-01-15T13:09:57.103Z,18.90
2023-01-15T13:12:45.106Z,19.00
2023-01-15T13:15:39.655Z,18.20
2023-01-15T13:18:36.919Z,18.80
2023-01-15T13:21:27.003Z,18.80
2023-01-15T13:24:31.592Z,18.70
2023-01-15T13:27:35.495Z,18.70
2023-01-15T13:30:45.076Z,18.70
2023-01-15T13:33:42.001Z,18.70
2023-01-15T13:36:37.447Z,18.70
2023-01-15T13:39:31.508Z,18.70
2023-01-15T13:42:35.482Z,18.70
2023-01-15T13:45:37.079Z,18.80
2023-01-15T13:48:31.321Z,18.70
2023-01-15T13:51:30.280Z,18.90
2023-01-15T13:54:21.880Z,18.90
2023-01-15T13:57:10.503Z,18.90
2023-01-15T13:59:58.555Z,19.00
2023-01-15T14:02:53.869Z,19.00
2023-01-15T14:05:41.949Z,18.90
2023-01-15T14:08:40.735Z,19.00
2023-01-15T14:11:37.142Z,19.10
2023-01-15T14:14:52.891Z,19.00
2023-01-15T14:18:11.202Z,19.00
2023-01-15T14:21:15.566Z,19.10
2023-01-15T14:24:19.236Z,19.00
2023-01-15T14:27:14.035Z,19.00
2023-01-15T14:30:20.195Z,18.90
2023-01-15T14:33:19.502Z,18.90
2023-01-15T14:36:15.862Z,18.90
2023-01-15T14:39:06.598Z,18.80
2023-01-15T14:42:19.431Z,18.70
2023-01-15T14:45:09.933Z,18.60
2023-01-15T14:47:59.897Z,18.60
2023-01-15T14:50:49.965Z,18.60
2023-01-15T14:53:45.081Z,18.60
2023-01-15T14:56:36.929Z,18.70
2023-01-15T14:59:30.124Z,18.70
2023-01-15T15:02:23.826Z,18.70
2023-01-15T15:05:16.686Z,18.70
2023-01-15T15:08:06.107Z,18.70
2023-01-15T15:10:56.937Z,18.80
2023-01-15T15:13:48.301Z,18.80
2023-01-15T15:16:44.818Z,18.80
2023-01-15T15:19:39.119Z,18.80
2023-01-15T15:22:32.852Z,18.80
2023-01-15T15:25:24.451Z,18.80
2023-01-15T15:28:13.130Z,18.90
2023-01-15T15:31:02.232Z,18.90
2023-01-15T15:33:51.631Z,18.90
2023-01-15T15:36:39.873Z,18.80
2023-01-15T15:39:35.454Z,18.90
2023-01-15T15:42:44.804Z,18.90
2023-01-15T15:45:50.537Z,18.80
2023-01-15T15:48:45.608Z,18.80
2023-01-15T15:51:38.022Z,18.70
2023-01-15T15:54:28.098Z,18.70
2023-01-15T15:57:19.161Z,18.60
2023-01-15T16:00:19.167Z,18.60
2023-01-15T16:03:17.448Z,18.50
2023-01-15T16:06:07.765Z,18.50
2023-01-15T16:09:01.485Z,18.50
2023-01-15T16:11:52.004Z,18.50
2023-01-15T16:14:41.271Z,18.60
2023-01-15T16:17:29.652Z,18.70
2023-01-15T16:20:20.349Z,18.60
2023-01-15T16:23:21.431Z,18.80
2023-01-15T16:26:15.570Z,18.80
2023-01-15T16:29:06.022Z,18.70
2023-01-15T16:31:56.001Z,18.80
2023-01-15T16:34:45.536Z,18.90
2023-01-15T16:37:35.617Z,19.00
2023-01-15T16:40:28.823Z,19.00
2023-01-15T16:43:22.448Z,19.00
2023-01-15T16:46:18.730Z,19.10
2023-01-15T16:49:24.708Z,19.00
2023-01-15T16:52:43.609Z,19.00
2023-01-15T16:55:43.458Z,19.00
2023-01-15T16:58:38.564Z,19.00
2023-01-15T17:01:35.611Z,18.90
2023-01-15T17:04:29.817Z,18.90
2023-01-15T17:07:20.858Z,18.90
2023-01-15T17:10:20.991Z,18.90
2023-01-15T17:13:18.908Z,18.80
2023-01-15T17:16:18.236Z,18.80
2023-01-15T17:19:08.748Z,18.70
2023-01-15T17:21:56.880Z,18.70
2023-01-15T17:24:49.089Z,18.60
2023-01-15T17:27:37.152Z,18.60
2023-01-15T17:30:30.773Z,18.50
2023-01-15T17:33:21.392Z,18.40
2023-01-15T17:36:10.929Z,18.50
2023-01-15T17:38:59.045Z,18.60
2023-01-15T17:41:47.228Z,18.50
2023-01-15T17:44:35.320Z,18.50
2023-01-15T17:47:23.343Z,18.50
2023-01-15T17:50:14.503Z,18.50
2023-01-15T17:53:02.700Z,18.60
2023-01-15T17:56:08.597Z,18.60
2023-01-15T17:59:29.057Z,18.50
2023-01-15T18:02:42.459Z,18.60
2023-01-15T18:05:35.307Z,18.60
2023-01-15T18:08:23.377Z,18.60
2023-01-15T18:11:11.835Z,18.60
2023-01-15T18:13:59.918Z,18.60
2023-01-15T18:16:47.976Z,18.60
2023-01-15T18:19:36.028Z,18.60
2023-01-15T18:22:25.359Z,18.60
2023-01-15T18:25:13.457Z,18.50
2023-01-15T18:28:01.604Z,18.50
2023-01-15T18:30:50.020Z,18.40
2023-01-15T18:33:38.236Z,18.40
2023-01-15T18:36:26.320Z,18.40
2023-01-15T18:39:15.738Z,18.40
2023-01-15T18:42:21.626Z,18.40
2023-01-15T18:45:28.440Z,18.40
2023-01-15T18:48:16.509Z,18.40
2023-01-15T18:51:08.464Z,18.40
2023-01-15T18:53:56.509Z,18.50
2023-01-15T18:56:48.065Z,18.40
2023-01-15T18:59:36.164Z,18.50
2023-01-15T19:02:24.296Z,18.60
2023-01-15T19:05:14.509Z,18.60
2023-01-15T19:08:02.616Z,18.60
2023-01-15T19:10:50.723Z,18.60
2023-01-15T19:13:40.130Z,18.60
2023-01-15T19:16:45.856Z,18.60
2023-01-15T19:19:33.913Z,18.60
2023-01-15T19:22:39.484Z,18.60
2023-01-15T19:25:29.068Z,18.60
2023-01-15T19:28:18.930Z,18.50
2023-01-15T19:31:28.033Z,18.50
2023-01-15T19:34:33.249Z,18.40
2023-01-15T19:37:22.187Z,18.30
2023-01-15T19:40:13.273Z,18.30
2023-01-15T19:43:19.081Z,18.30
2023-01-15T19:46:28.587Z,18.30
2023-01-15T19:49:37.188Z,18.20
2023-01-15T19:52:38.001Z,18.20
2023-01-15T19:55:26.437Z,18.30
2023-01-15T19:58:16.098Z,18.30
2023-01-15T20:01:05.052Z,18.40
2023-01-15T20:03:54.483Z,18.40
2023-01-15T20:06:42.499Z,18.50
2023-01-15T20:09:30.545Z,18.50
2023-01-15T20:12:36.365Z,18.60
2023-01-15T20:15:25.334Z,18.60
2023-01-15T20:18:14.027Z,18.60
2023-01-15T20:21:03.490Z,18.60
2023-01-15T20:23:51.551Z,18.60
2023-01-15T20:26:39.575Z,18.70
2023-01-15T20:29:27.775Z,18.60
2023-01-15T20:32:16.136Z,18.60
2023-01-15T20:35:04.802Z,18.60
2023-01-15T20:37:54.270Z,18.60
2023-01-15T20:40:42.369Z,18.60
2023-01-15T20:43:47.950Z,18.60
2023-01-15T20:46:35.983Z,18.50
2023-01-15T20:49:28.061Z,18.50
2023-01-15T20:52:16.174Z,18.50
2023-01-15T20:55:06.368Z,18.50
2023-01-15T20:57:54.396Z,18.40
2023-01-15T21:00:42.495Z,18.40
2023-01-15T21:03:30.546Z,18.40
2023-01-15T21:06:18.626Z,18.40
2023-01-15T21:09:06.992Z,18.40
2023-01-15T21:11:56.391Z,18.40
2023-01-15T21:14:44.472Z,18.30
2023-01-15T21:17:32.643Z,18.50
2023-01-15T21:20:20.737Z,18.50
2023-01-15T21:23:08.755Z,18.50
2023-01-15T21:26:00.597Z,18.40
2023-01-15T21:28:53.237Z,18.60
2023-01-15T21:31:43.033Z,18.60
2023-01-15T21:34:31.139Z,18.50
2023-01-15T21:37:19.229Z,18.70
2023-01-15T21:40:08.738Z,18.60
2023-01-15T21:43:14.480Z,18.70
2023-01-15T21:46:05.188Z,18.70
2023-01-15T21:48:53.285Z,18.60
2023-01-15T21:51:41.302Z,18.60
2023-01-15T21:54:29.405Z,18.60
2023-01-15T21:57:19.015Z,18.50
2023-01-15T22:00:08.184Z,18.50
2023-01-15T22:02:58.492Z,18.50
2023-01-15T22:05:46.667Z,18.30
2023-01-15T22:08:35.276Z,18.30
2023-01-15T22:11:24.154Z,18.30
2023-01-15T22:14:13.943Z,18.40
2023-01-15T22:17:04.171Z,18.30
2023-01-15T22:19:53.618Z,18.40
2023-01-15T22:22:41.640Z,18.50
2023-01-15T22:25:29.704Z,18.50
2023-01-15T22:28:17.762Z,18.60
2023-01-15T22:31:06.539Z,18.60
2023-01-15T22:33:55.603Z,18.70
2023-01-15T22:36:44.986Z,18.70
2023-01-15T22:39:33.067Z,18.70
2023-01-15T22:42:27.874Z,18.90
2023-01-15T22:45:16.117Z,18.80
2023-01-15T22:48:04.266Z,18.80
2023-01-15T22:50:52.291Z,18.80
2023-01-15T22:53:41.633Z,18.80
2023-01-15T22:56:29.832Z,18.80
2023-01-15T22:59:18.029Z,18.80
2023-01-15T23:02:06.241Z,18.80
2023-01-15T23:04:54.416Z,18.70
2023-01-15T23:07:42.432Z,18.70
2023-01-15T23:10:31.901Z,18.60
2023-01-15T23:13:21.086Z,18.60
2023-01-15T23:16:10.409Z,18.60
2023-01-15T23:18:58.663Z,18.50
2023-01-15T23:21:46.721Z,18.50
2023-01-15T23:24:34.864Z,18.40
2023-01-15T23:27:24.200Z,18.40
2023-01-15T23:30:12.757Z,18.40
2023-01-15T23:33:00.779Z,18.40
2023-01-15T23:35:48.841Z,18.40
2023-01-15T23:38:36.891Z,18.30
2023-01-15T23:41:40.256Z,18.30
2023-01-15T23:44:47.420Z,18.30
2023-01-15T23:47:35.424Z,18.30
2023-01-15T23:50:24.858Z,18.30
2023-01-15T23:53:13.032Z,18.40
2023-01-15T23:56:01.967Z,18.40
2023-01-15T23:58:50.044Z,18.30
